Time;durP1;ratioP1;P1;durP2;ratioP2;P2;SDS_P1;SDS_P2;PMS_P1;PMS_P2;Temp;Humidity;BMP_temperature;BMP_pressure;BME280_temperature;BME280_humidity;BME280_pressure;Samples;Min_cycle;Max_cycle;Signal;HPM_P1;HPM_P2
2021/03/10 00:00:36;;;;;;;4.80;4.37;;;3.50;99.90;;;;;;5025173;28;20231;-83
2021/03/10 00:03:02;;;;;;;3.43;3.10;;;3.60;99.90;;;;;;5026039;28;20215;-83
2021/03/10 00:05:28;;;;;;;6.63;5.07;;;3.60;99.90;;;;;;5025879;28;20210;-84
2021/03/10 00:07:54;;;;;;;6.47;4.60;;;3.60;99.90;;;;;;5025756;28;20221;-82
2021/03/10 00:10:20;;;;;;;12.13;3.87;;;3.60;99.90;;;;;;5042813;28;20193;-84
2021/03/10 00:12:46;;;;;;;5.93;5.47;;;3.60;99.90;;;;;;4993535;28;20693;-83
2021/03/10 00:15:13;;;;;;;4.63;4.23;;;3.60;99.90;;;;;;5016514;28;20205;-83
2021/03/10 00:17:42;;;;;;;9.43;6.20;;;3.70;99.90;;;;;;5024990;28;20745;-85
2021/03/10 00:20:09;;;;;;;5.77;4.83;;;3.70;99.90;;;;;;5016105;28;20190;-83
2021/03/10 00:22:35;;;;;;;3.27;2.97;;;3.60;99.90;;;;;;5029614;28;20280;-83
2021/03/10 00:25:01;;;;;;;3.90;3.60;;;3.60;99.90;;;;;;5027766;28;20305;-83
2021/03/10 00:27:27;;;;;;;5.50;4.97;;;3.60;99.90;;;;;;5012070;28;20213;-83
2021/03/10 00:29:55;;;;;;;4.80;3.53;;;3.60;99.90;;;;;;5012208;28;20214;-84
2021/03/10 00:32:22;;;;;;;5.73;5.10;;;3.60;99.90;;;;;;5028077;28;20696;-84
2021/03/10 00:34:48;;;;;;;5.33;4.03;;;3.70;99.90;;;;;;5030099;28;20787;-85
2021/03/10 00:37:17;;;;;;;2.60;2.37;;;3.70;99.90;;;;;;5011709;28;20297;-84
2021/03/10 00:39:44;;;;;;;5.77;5.17;;;3.80;99.90;;;;;;5028192;28;20206;-82
2021/03/10 00:42:11;;;;;;;6.50;4.30;;;3.80;99.90;;;;;;4992479;28;20218;-84
2021/03/10 00:44:36;;;;;;;4.57;4.17;;;3.70;99.90;;;;;;4995466;28;20686;-85
2021/03/10 00:47:03;;;;;;;3.90;2.83;;;3.70;99.90;;;;;;4986263;28;20236;-83
2021/03/10 00:49:28;;;;;;;3.20;2.93;;;3.70;99.90;;;;;;5028151;28;20194;-83
2021/03/10 00:51:54;;;;;;;3.77;3.47;;;3.80;99.90;;;;;;5027329;28;20547;-83
2021/03/10 00:54:20;;;;;;;5.63;3.57;;;3.80;99.90;;;;;;4998635;28;20626;-82
2021/03/10 00:56:46;;;;;;;6.20;5.00;;;3.80;99.90;;;;;;5026228;28;20214;-85
2021/03/10 00:59:11;;;;;;;3.70;3.37;;;3.70;99.90;;;;;;5008001;28;20239;-83
2021/03/10 01:01:37;;;;;;;3.67;3.37;;;3.70;99.90;;;;;;4992649;28;20256;-84
2021/03/10 01:04:03;;;;;;;4.37;3.43;;;3.60;99.90;;;;;;5025339;28;20233;-83
2021/03/10 01:06:29;;;;;;;4.07;3.77;;;3.60;99.90;;;;;;5005016;28;20241;-83
2021/03/10 01:08:56;;;;;;;3.57;3.27;;;3.40;99.90;;;;;;5011142;28;20260;-85
2021/03/10 01:11:22;;;;;;;7.67;3.47;;;3.40;99.90;;;;;;5028130;28;20643;-82
2021/03/10 01:13:48;;;;;;;4.83;2.97;;;3.40;99.90;;;;;;5012724;28;20205;-82
2021/03/10 01:16:14;;;;;;;4.53;3.40;;;3.30;99.90;;;;;;5027988;28;20236;-83
2021/03/10 01:18:40;;;;;;;3.70;3.20;;;3.20;99.90;;;;;;5027305;28;20226;-83
2021/03/10 01:21:06;;;;;;;3.37;3.17;;;3.20;99.90;;;;;;5011103;28;20213;-84
2021/03/10 01:23:32;;;;;;;4.73;3.80;;;3.10;99.90;;;;;;5027833;28;20316;-84
2021/03/10 01:25:58;;;;;;;5.60;4.30;;;3.00;99.90;;;;;;5027057;28;20189;-84
2021/03/10 01:28:24;;;;;;;5.73;4.83;;;2.90;99.90;;;;;;5028700;28;20278;-85
2021/03/10 01:30:50;;;;;;;4.27;3.93;;;2.80;99.90;;;;;;4993764;28;20298;-84
2021/03/10 01:33:16;;;;;;;2.77;2.57;;;2.80;99.90;;;;;;5010219;28;20596;-83
2021/03/10 01:35:42;;;;;;;2.23;1.73;;;2.70;99.90;;;;;;5027031;28;20216;-83
2021/03/10 01:38:07;;;;;;;3.93;3.60;;;2.80;99.90;;;;;;5027137;28;20272;-82
2021/03/10 01:40:33;;;;;;;6.70;3.40;;;2.70;99.90;;;;;;5028645;28;20182;-84
2021/03/10 01:43:04;;;;;;;4.17;3.73;;;2.70;99.90;;;;;;5011123;28;20260;-83
2021/03/10 01:45:30;;;;;;;6.23;5.67;;;2.70;99.90;;;;;;4993614;28;20217;-82
2021/03/10 01:47:58;;;;;;;5.50;4.97;;;2.70;99.90;;;;;;5026589;28;20721;-85
2021/03/10 01:50:27;;;;;;;4.43;2.93;;;2.80;99.90;;;;;;5026784;28;20222;-83
2021/03/10 01:52:56;;;;;;;6.23;4.07;;;2.80;99.90;;;;;;5043629;28;20193;-83
2021/03/10 01:55:24;;;;;;;2.07;1.97;;;2.90;99.90;;;;;;5012523;28;20182;-82
2021/03/10 01:57:50;;;;;;;4.80;4.00;;;2.90;99.90;;;;;;5026907;28;20255;-83
2021/03/10 02:00:18;;;;;;;5.23;3.87;;;2.90;99.90;;;;;;5044605;28;20230;-84
2021/03/10 02:02:44;;;;;;;4.17;2.73;;;2.90;99.90;;;;;;5027069;28;20221;-82
2021/03/10 02:05:14;;;;;;;4.40;4.10;;;2.90;99.90;;;;;;5026555;28;20178;-82
2021/03/10 02:07:49;;;;;;;5.87;3.80;;;2.90;99.90;;;;;;5027811;28;21144;-83
2021/03/10 02:10:41;;;;;;;7.20;4.03;;;2.90;99.90;;;;;;5026557;28;20592;-83
2021/03/10 02:13:41;;;;;;;5.60;3.00;;;3.00;99.90;;;;;;5026984;28;20222;-83
2021/03/10 02:16:21;;;;;;;5.50;2.73;;;2.90;99.90;;;;;;5043341;28;20218;-82
2021/03/10 02:19:26;;;;;;;6.07;3.97;;;2.80;99.90;;;;;;5026904;28;20218;-83
2021/03/10 02:22:23;;;;;;;5.20;2.80;;;2.70;99.90;;;;;;4973746;28;20222;-82
2021/03/10 02:25:11;;;;;;;5.03;3.47;;;2.60;99.90;;;;;;5022738;28;20332;-85
2021/03/10 02:27:52;;;;;;;9.17;4.70;;;2.40;99.90;;;;;;5026190;28;20288;-83
2021/03/10 02:30:26;;;;;;;4.20;3.33;;;2.40;99.90;;;;;;5026225;28;20252;-82
2021/03/10 02:32:53;;;;;;;2.40;2.17;;;2.30;99.90;;;;;;5026319;28;20243;-82
2021/03/10 02:35:22;;;;;;;6.13;3.37;;;2.20;99.90;;;;;;5026501;28;20224;-82
2021/03/10 02:37:50;;;;;;;3.50;3.30;;;2.20;99.90;;;;;;5011326;28;20273;-82
2021/03/10 02:40:18;;;;;;;3.07;2.73;;;2.20;99.90;;;;;;5025782;28;20228;-83
2021/03/10 02:42:46;;;;;;;3.83;3.40;;;2.10;99.90;;;;;;5043841;28;20224;-83
2021/03/10 02:45:12;;;;;;;2.37;1.87;;;2.00;99.90;;;;;;5025550;28;20229;-84
2021/03/10 02:47:40;;;;;;;2.97;2.87;;;2.00;99.90;;;;;;5025762;28;20226;-83
2021/03/10 02:50:08;;;;;;;2.07;1.97;;;2.00;99.90;;;;;;5026316;28;20189;-83
2021/03/10 02:52:35;;;;;;;4.30;4.03;;;2.00;99.90;;;;;;5027569;28;20188;-83
2021/03/10 02:55:02;;;;;;;5.47;3.60;;;1.90;99.90;;;;;;5009994;28;20785;-84
2021/03/10 02:57:29;;;;;;;4.23;3.43;;;1.90;99.90;;;;;;5025428;28;20222;-82
2021/03/10 02:59:57;;;;;;;8.00;5.53;;;2.00;99.90;;;;;;5044214;28;20218;-83
2021/03/10 03:02:22;;;;;;;5.00;3.63;;;2.00;99.90;;;;;;5026198;28;20241;-83
2021/03/10 03:04:48;;;;;;;3.00;2.87;;;2.00;99.90;;;;;;5011291;28;20593;-82
2021/03/10 03:07:14;;;;;;;7.63;4.50;;;2.00;99.90;;;;;;5026021;28;20226;-82
2021/03/10 03:09:40;;;;;;;3.67;3.37;;;1.90;99.90;;;;;;4993831;28;20217;-83
2021/03/10 03:12:07;;;;;;;5.37;3.03;;;2.00;99.90;;;;;;4983735;28;20303;-82
2021/03/10 03:14:34;;;;;;;5.17;3.10;;;1.90;99.90;;;;;;4995532;28;20248;-85
2021/03/10 03:17:02;;;;;;;5.47;3.73;;;1.90;99.90;;;;;;5042977;28;20213;-85
2021/03/10 03:19:28;;;;;;;4.20;3.83;;;1.90;99.90;;;;;;5007635;28;20225;-82
2021/03/10 03:21:54;;;;;;;3.17;2.87;;;1.80;99.90;;;;;;5006372;28;20257;-82
2021/03/10 03:24:21;;;;;;;2.87;2.47;;;1.80;99.90;;;;;;5025758;28;20587;-83
2021/03/10 03:26:48;;;;;;;4.30;3.20;;;1.80;99.90;;;;;;5026284;28;20209;-82
2021/03/10 03:29:14;;;;;;;4.50;2.70;;;1.80;99.90;;;;;;5009144;28;20283;-84
2021/03/10 03:31:42;;;;;;;3.63;3.00;;;1.80;99.90;;;;;;4994647;28;20191;-84
2021/03/10 03:34:09;;;;;;;3.93;2.23;;;1.80;99.90;;;;;;5009217;28;20206;-82
2021/03/10 03:36:36;;;;;;;7.53;3.47;;;1.80;99.90;;;;;;5009176;28;20222;-83
2021/03/10 03:39:05;;;;;;;2.93;2.73;;;1.90;99.90;;;;;;5009336;28;20670;-82
2021/03/10 03:41:32;;;;;;;3.73;3.43;;;1.90;99.90;;;;;;5042733;28;20332;-84
2021/03/10 03:44:02;;;;;;;4.30;3.90;;;1.90;99.90;;;;;;5008018;28;20189;-82
2021/03/10 03:46:31;;;;;;;7.77;4.97;;;1.90;99.90;;;;;;5010299;28;20205;-84
2021/03/10 03:49:01;;;;;;;4.77;3.73;;;2.00;99.90;;;;;;5010260;28;20229;-83
2021/03/10 03:51:29;;;;;;;5.33;4.70;;;2.00;99.90;;;;;;4998103;28;20219;-83
2021/03/10 03:54:02;;;;;;;7.60;5.03;;;2.10;99.90;;;;;;5014843;28;20686;-82
2021/03/10 03:56:28;;;;;;;5.90;3.07;;;2.20;99.90;;;;;;5045468;28;20221;-82
2021/03/10 03:58:54;;;;;;;3.83;3.03;;;2.20;99.90;;;;;;5029045;28;20695;-82
2021/03/10 04:01:20;;;;;;;4.97;2.63;;;2.20;99.90;;;;;;5010854;28;20289;-82
2021/03/10 04:03:47;;;;;;;8.47;4.17;;;2.30;99.90;;;;;;5024703;28;20725;-83
2021/03/10 04:06:13;;;;;;;2.97;2.67;;;2.30;99.90;;;;;;5004589;28;20228;-82
2021/03/10 04:08:41;;;;;;;2.33;2.17;;;2.30;99.90;;;;;;5012919;28;20308;-83
2021/03/10 04:11:10;;;;;;;4.83;3.43;;;2.30;99.90;;;;;;5029525;28;20193;-84
2021/03/10 04:13:35;;;;;;;4.80;2.87;;;2.40;99.90;;;;;;5013860;28;20209;-84
2021/03/10 04:16:01;;;;;;;4.77;4.40;;;2.40;99.90;;;;;;4996526;28;20575;-82
2021/03/10 04:18:27;;;;;;;5.53;3.60;;;2.50;99.90;;;;;;5046116;28;20383;-83
2021/03/10 04:20:53;;;;;;;9.43;4.93;;;2.50;99.90;;;;;;5020532;28;20293;-83
2021/03/10 04:23:19;;;;;;;6.83;4.13;;;2.60;99.90;;;;;;5002867;28;20745;-83
2021/03/10 04:25:44;;;;;;;8.43;3.80;;;2.60;99.90;;;;;;5013774;28;20193;-83
2021/03/10 04:28:10;;;;;;;2.87;1.33;;;2.60;99.90;;;;;;5011718;28;20245;-84
2021/03/10 04:30:36;;;;;;;2.40;2.20;;;2.70;99.90;;;;;;5028422;28;20297;-83
2021/03/10 04:33:02;;;;;;;2.13;1.90;;;2.70;99.90;;;;;;5012563;28;20221;-82
2021/03/10 04:35:28;;;;;;;4.90;3.30;;;2.70;99.90;;;;;;5011693;28;20578;-84
2021/03/10 04:37:54;;;;;;;2.70;2.47;;;2.80;99.90;;;;;;4996496;28;20281;-82
2021/03/10 04:40:20;;;;;;;3.10;2.80;;;2.80;99.90;;;;;;5029346;28;20583;-83
2021/03/10 04:42:47;;;;;;;1.23;1.23;;;2.80;99.90;;;;;;5012551;28;20225;-83
2021/03/10 04:45:13;;;;;;;4.93;2.30;;;2.80;99.90;;;;;;5045749;28;20708;-82
2021/03/10 04:47:44;;;;;;;2.20;2.10;;;2.80;99.90;;;;;;5027719;28;20231;-83
2021/03/10 04:50:11;;;;;;;2.70;2.60;;;2.80;99.90;;;;;;5028326;28;20178;-82
2021/03/10 04:52:37;;;;;;;3.67;3.27;;;2.80;99.90;;;;;;5013554;28;20170;-83
2021/03/10 04:55:05;;;;;;;3.60;3.13;;;2.80;99.90;;;;;;5028119;28;20217;-84
2021/03/10 04:57:31;;;;;;;1.53;1.43;;;2.80;99.90;;;;;;5011759;28;20222;-83
2021/03/10 04:59:57;;;;;;;4.43;3.43;;;2.80;99.90;;;;;;5027948;28;20228;-84
2021/03/10 05:02:22;;;;;;;3.23;2.53;;;2.80;99.90;;;;;;5011983;28;20231;-83
2021/03/10 05:04:48;;;;;;;2.53;2.33;;;2.70;99.90;;;;;;4996639;28;20189;-82
2021/03/10 05:07:14;;;;;;;5.00;1.63;;;2.80;99.90;;;;;;5010945;28;21220;-83
2021/03/10 05:09:41;;;;;;;2.00;1.77;;;2.70;99.90;;;;;;5045987;28;20206;-83
2021/03/10 05:12:07;;;;;;;1.17;1.10;;;2.80;99.90;;;;;;5010791;28;20210;-83
2021/03/10 05:14:33;;;;;;;5.00;3.83;;;2.70;99.90;;;;;;5011820;28;20222;-83
2021/03/10 05:16:59;;;;;;;6.53;2.73;;;2.70;99.90;;;;;;5010156;28;20278;-82
2021/03/10 05:19:25;;;;;;;5.40;2.00;;;2.70;99.90;;;;;;4976920;28;20274;-84
2021/03/10 05:21:51;;;;;;;5.63;3.53;;;2.80;99.90;;;;;;5020596;28;21469;-82
2021/03/10 05:24:17;;;;;;;5.13;2.80;;;2.80;99.90;;;;;;5019266;28;20632;-83
2021/03/10 05:26:42;;;;;;;4.30;3.57;;;2.80;99.90;;;;;;4994730;28;20209;-83
2021/03/10 05:29:08;;;;;;;4.90;3.57;;;2.80;99.90;;;;;;4994937;28;20198;-84
2021/03/10 05:31:34;;;;;;;4.87;2.70;;;2.90;99.90;;;;;;5011915;28;20186;-84
2021/03/10 05:34:00;;;;;;;2.97;2.73;;;2.90;99.90;;;;;;4993969;28;20209;-82
2021/03/10 05:36:26;;;;;;;5.57;3.77;;;2.90;99.90;;;;;;5040620;28;20214;-83
2021/03/10 05:38:51;;;;;;;3.90;3.33;;;3.00;99.90;;;;;;4993153;28;20270;-83
2021/03/10 05:41:17;;;;;;;2.20;1.97;;;3.00;99.90;;;;;;5011450;28;20217;-82
2021/03/10 05:43:44;;;;;;;2.23;1.47;;;3.00;99.90;;;;;;5027426;28;20668;-84
2021/03/10 05:46:11;;;;;;;7.23;3.07;;;3.00;99.90;;;;;;4992843;28;20214;-85
2021/03/10 05:48:37;;;;;;;4.17;3.07;;;3.00;99.90;;;;;;5010764;28;20224;-82
2021/03/10 05:51:03;;;;;;;4.83;2.97;;;3.00;99.90;;;;;;5027258;28;20210;-82
2021/03/10 05:53:33;;;;;;;8.87;4.60;;;3.00;99.90;;;;;;4994508;28;20221;-84
2021/03/10 05:56:02;;;;;;;3.13;2.83;;;3.10;99.90;;;;;;5027401;28;20228;-82
2021/03/10 05:58:28;;;;;;;2.87;2.47;;;3.00;99.90;;;;;;5028696;28;20969;-83
2021/03/10 06:00:54;;;;;;;1.83;1.73;;;3.10;99.90;;;;;;5010251;28;20313;-82
2021/03/10 06:03:20;;;;;;;2.80;2.53;;;3.10;99.90;;;;;;5010453;28;20213;-82
2021/03/10 06:05:45;;;;;;;4.33;3.37;;;3.10;99.90;;;;;;5011009;28;20244;-81
2021/03/10 06:08:15;;;;;;;3.47;2.50;;;3.00;99.90;;;;;;4982939;28;20230;-82
2021/03/10 06:10:46;;;;;;;3.30;3.00;;;3.00;99.90;;;;;;5021598;28;20191;-82
2021/03/10 06:13:29;;;;;;;1.20;1.17;;;3.00;99.90;;;;;;4988006;28;20207;-82
2021/03/10 06:15:57;;;;;;;3.33;2.37;;;3.00;99.90;;;;;;5004070;28;20211;-83
2021/03/10 06:18:34;;;;;;;3.57;3.27;;;3.00;99.90;;;;;;5003035;28;20294;-81
2021/03/10 06:21:07;;;;;;;5.53;4.03;;;3.00;99.90;;;;;;5019527;28;20691;-82
2021/03/10 06:23:52;;;;;;;2.43;2.23;;;3.10;99.90;;;;;;4999745;28;20216;-82
2021/03/10 06:26:26;;;;;;;3.20;2.50;;;3.10;99.90;;;;;;4987334;28;20305;-82
2021/03/10 06:28:53;;;;;;;4.80;3.73;;;3.20;99.90;;;;;;5006488;28;20578;-83
2021/03/10 06:31:31;;;;;;;1.60;1.50;;;3.10;99.90;;;;;;5003556;28;21193;-83
2021/03/10 06:34:05;;;;;;;3.30;3.00;;;3.20;99.90;;;;;;5003667;28;20212;-82
2021/03/10 06:36:33;;;;;;;4.20;2.50;;;3.20;99.90;;;;;;5003559;28;20292;-84
2021/03/10 06:38:59;;;;;;;4.27;3.80;;;3.20;99.90;;;;;;5003769;28;20262;-81
2021/03/10 06:41:29;;;;;;;3.10;2.10;;;3.20;99.90;;;;;;4987145;28;20883;-81
2021/03/10 06:43:56;;;;;;;5.73;3.77;;;3.20;99.90;;;;;;5002230;28;20188;-81
2021/03/10 06:46:22;;;;;;;2.80;2.57;;;3.20;99.90;;;;;;4988328;28;21249;-82
2021/03/10 06:49:02;;;;;;;3.60;3.30;;;3.30;99.90;;;;;;4987178;28;20215;-83
2021/03/10 06:51:31;;;;;;;5.17;4.33;;;3.30;99.90;;;;;;5004301;28;20230;-81
2021/03/10 06:53:58;;;;;;;8.67;4.87;;;3.30;99.90;;;;;;5002318;28;20227;-81
2021/03/10 06:56:29;;;;;;;5.17;3.87;;;3.40;99.90;;;;;;5019314;28;20219;-82
2021/03/10 06:59:00;;;;;;;3.13;2.60;;;3.40;99.90;;;;;;5002827;28;20180;-81
2021/03/10 07:01:28;;;;;;;3.27;2.97;;;3.40;99.90;;;;;;5004482;28;20190;-81
2021/03/10 07:03:55;;;;;;;3.40;2.20;;;3.40;99.90;;;;;;4986739;28;20262;-82
2021/03/10 07:06:22;;;;;;;11.70;7.67;;;3.50;99.90;;;;;;5002792;28;20219;-82
2021/03/10 07:08:49;;;;;;;4.37;3.93;;;3.50;99.90;;;;;;4986814;28;21337;-83
2021/03/10 07:11:15;;;;;;;3.67;3.37;;;3.60;99.90;;;;;;4987558;28;20229;-86
2021/03/10 07:13:45;;;;;;;3.77;2.77;;;3.60;99.90;;;;;;4987015;28;20667;-85
2021/03/10 07:16:11;;;;;;;2.90;2.50;;;3.60;99.90;;;;;;5004586;28;20223;-84
2021/03/10 07:18:38;;;;;;;4.13;3.77;;;3.70;99.90;;;;;;4987178;28;20667;-82
2021/03/10 07:21:06;;;;;;;4.73;3.63;;;3.70;99.90;;;;;;4993097;28;20235;-84
2021/03/10 07:23:38;;;;;;;4.40;3.33;;;3.70;99.90;;;;;;5004978;28;20219;-83
2021/03/10 07:26:05;;;;;;;4.03;3.53;;;3.70;99.90;;;;;;5002891;28;21117;-84
2021/03/10 07:28:33;;;;;;;4.43;3.73;;;3.80;99.90;;;;;;5005447;28;20250;-82
2021/03/10 07:30:59;;;;;;;4.87;3.83;;;3.90;99.90;;;;;;5006550;28;20215;-82
2021/03/10 07:33:25;;;;;;;4.90;3.87;;;3.90;99.90;;;;;;4990363;28;20257;-82
2021/03/10 07:35:53;;;;;;;2.63;2.43;;;3.90;99.90;;;;;;4990140;28;20227;-80
2021/03/10 07:38:22;;;;;;;3.00;2.83;;;4.00;99.90;;;;;;5007085;28;20683;-85
2021/03/10 07:40:59;;;;;;;27.13;3.87;;;4.00;99.90;;;;;;5006716;28;20188;-83
2021/03/10 07:43:57;;;;;;;4.50;4.13;;;4.00;99.90;;;;;;5006099;28;20218;-83
2021/03/10 07:46:24;;;;;;;4.00;3.60;;;4.10;99.90;;;;;;4975817;28;20651;-82
2021/03/10 07:48:51;;;;;;;4.33;3.83;;;4.20;99.90;;;;;;5006186;28;20757;-84
2021/03/10 07:51:36;;;;;;;3.63;2.93;;;4.30;99.90;;;;;;4989749;28;21398;-81
2021/03/10 07:54:14;;;;;;;4.23;3.80;;;4.30;99.90;;;;;;5013866;28;20247;-83
2021/03/10 07:56:40;;;;;;;4.47;4.07;;;4.40;99.90;;;;;;5004997;28;20238;-85
2021/03/10 07:59:14;;;;;;;3.27;2.80;;;4.40;99.90;;;;;;4964013;28;20180;-84
2021/03/10 08:01:40;;;;;;;6.30;4.13;;;4.40;99.90;;;;;;4982724;28;20554;-82
2021/03/10 08:04:08;;;;;;;5.07;4.63;;;4.50;99.90;;;;;;5004192;28;20231;-85
2021/03/10 08:06:49;;;;;;;4.17;3.87;;;4.60;99.90;;;;;;5007421;28;20223;-82
2021/03/10 08:09:18;;;;;;;5.47;4.53;;;4.60;99.90;;;;;;5008114;28;20357;-82
2021/03/10 08:11:46;;;;;;;6.60;4.27;;;4.60;99.90;;;;;;4974066;28;20246;-81
2021/03/10 08:14:16;;;;;;;5.67;4.73;;;4.60;99.90;;;;;;5005803;28;20284;-87
2021/03/10 08:16:44;;;;;;;9.07;5.93;;;4.70;99.90;;;;;;5024004;28;20769;-83
2021/03/10 08:19:10;;;;;;;6.07;5.47;;;4.70;99.90;;;;;;5006080;28;20638;-83
2021/03/10 08:21:47;;;;;;;4.83;3.97;;;4.80;99.90;;;;;;5005958;28;20227;-83
2021/03/10 08:24:14;;;;;;;7.17;5.67;;;4.80;99.90;;;;;;4995393;28;20218;-83
2021/03/10 08:26:42;;;;;;;7.40;5.57;;;4.90;99.90;;;;;;4992984;28;20277;-82
2021/03/10 08:29:08;;;;;;;14.03;4.33;;;4.90;99.90;;;;;;5007007;28;20195;-84
2021/03/10 08:32:03;;;;;;;4.63;4.23;;;4.90;99.90;;;;;;5007608;28;20261;-83
2021/03/10 08:34:37;;;;;;;3.87;3.47;;;5.00;99.90;;;;;;4954603;28;20223;-82
2021/03/10 08:37:10;;;;;;;5.77;5.07;;;5.00;99.90;;;;;;5004130;28;20218;-81
2021/03/10 08:39:47;;;;;;;5.53;5.10;;;5.00;99.90;;;;;;5005575;28;20215;-84
2021/03/10 08:42:25;;;;;;;7.90;4.87;;;5.10;99.90;;;;;;4988820;28;20574;-82
2021/03/10 08:44:52;;;;;;;12.50;3.83;;;5.10;99.90;;;;;;5004417;28;20214;-82
2021/03/10 08:47:21;;;;;;;10.17;5.17;;;5.20;99.90;;;;;;4986103;28;20216;-82
2021/03/10 08:50:00;;;;;;;12.17;6.77;;;5.20;99.90;;;;;;5001705;28;20207;-81
2021/03/10 08:52:27;;;;;;;6.13;5.57;;;5.20;99.90;;;;;;5005670;28;20297;-82
2021/03/10 08:54:59;;;;;;;9.33;4.00;;;5.30;99.90;;;;;;4989084;28;20215;-84
2021/03/10 08:57:28;;;;;;;6.47;5.07;;;5.30;99.90;;;;;;5005676;28;20310;-81
2021/03/10 08:59:55;;;;;;;9.50;4.63;;;5.30;99.90;;;;;;4989456;28;20558;-83
2021/03/10 09:02:35;;;;;;;13.20;6.50;;;5.40;99.90;;;;;;4973432;28;20237;-85
2021/03/10 09:05:05;;;;;;;7.67;5.33;;;5.40;99.90;;;;;;5003492;28;20210;-82
2021/03/10 09:07:33;;;;;;;7.27;6.17;;;5.50;99.90;;;;;;4970260;28;20207;-83
2021/03/10 09:10:01;;;;;;;9.63;5.03;;;5.50;99.90;;;;;;5021426;28;20227;-83
2021/03/10 09:12:28;;;;;;;6.70;4.43;;;5.50;99.90;;;;;;5024852;28;20210;-81
2021/03/10 09:14:55;;;;;;;5.77;5.10;;;5.60;99.90;;;;;;5024461;28;20203;-84
2021/03/10 09:17:37;;;;;;;8.83;6.33;;;5.60;99.90;;;;;;5008651;28;20657;-83
2021/03/10 09:20:27;;;;;;;5.83;4.80;;;5.70;99.90;;;;;;5007190;28;20191;-85
2021/03/10 09:22:54;;;;;;;6.87;5.47;;;5.80;99.90;;;;;;5000551;28;20822;-82
2021/03/10 09:25:31;;;;;;;7.07;5.50;;;5.80;99.90;;;;;;5009614;28;20202;-82
2021/03/10 09:28:16;;;;;;;12.03;5.87;;;5.90;99.90;;;;;;5024712;28;20223;-85
2021/03/10 09:30:44;;;;;;;7.07;5.87;;;5.90;99.90;;;;;;5020359;28;20302;-81
2021/03/10 09:33:25;;;;;;;5.97;5.10;;;5.90;99.90;;;;;;5013335;28;20822;-83
2021/03/10 09:35:56;;;;;;;7.07;4.67;;;5.90;99.90;;;;;;5013207;28;20218;-82
2021/03/10 09:38:26;;;;;;;7.70;6.37;;;5.90;99.90;;;;;;5020073;28;20274;-82
2021/03/10 09:40:58;;;;;;;4.47;4.10;;;6.00;99.90;;;;;;5006421;28;20176;-83
2021/03/10 09:43:26;;;;;;;9.10;6.50;;;6.00;99.90;;;;;;5019821;28;20222;-84
2021/03/10 09:45:58;;;;;;;14.07;6.53;;;6.10;99.90;;;;;;5024927;28;20214;-84
2021/03/10 09:48:28;;;;;;;19.67;5.83;;;6.10;99.90;;;;;;5025754;28;20596;-87
2021/03/10 09:51:02;;;;;;;7.93;6.70;;;6.10;99.90;;;;;;5024424;28;20292;-83
2021/03/10 09:53:28;;;;;;;6.23;5.10;;;6.10;99.90;;;;;;5023239;28;20219;-82
2021/03/10 09:56:08;;;;;;;8.60;5.90;;;6.10;99.90;;;;;;5024085;28;20213;-82
2021/03/10 09:58:44;;;;;;;13.50;6.07;;;6.20;99.90;;;;;;5009772;28;20186;-82
2021/03/10 10:01:10;;;;;;;11.13;7.03;;;6.20;99.90;;;;;;5008906;28;20272;-81
2021/03/10 10:03:35;;;;;;;10.17;7.13;;;6.20;99.90;;;;;;5007080;28;20808;-82
2021/03/10 10:06:06;;;;;;;6.83;5.60;;;6.20;99.90;;;;;;5023343;28;20588;-82
2021/03/10 10:08:34;;;;;;;5.13;4.40;;;6.30;99.90;;;;;;4983207;28;20726;-82
2021/03/10 10:11:00;;;;;;;12.97;5.87;;;6.30;99.90;;;;;;4988279;28;20199;-83
2021/03/10 10:13:26;;;;;;;11.17;5.83;;;6.40;99.90;;;;;;4988647;28;20269;-82
2021/03/10 10:15:52;;;;;;;5.90;5.33;;;6.40;99.90;;;;;;4971345;28;20234;-83
2021/03/10 10:18:17;;;;;;;6.27;5.03;;;6.40;99.90;;;;;;4960272;28;20211;-83
2021/03/10 10:20:43;;;;;;;8.33;5.93;;;6.40;99.90;;;;;;4974619;28;20218;-83
2021/03/10 10:23:09;;;;;;;9.90;6.47;;;6.40;99.90;;;;;;4984105;28;20210;-83
2021/03/10 10:25:35;;;;;;;7.50;6.63;;;6.50;99.90;;;;;;4970123;28;20284;-82
2021/03/10 10:28:01;;;;;;;14.57;7.00;;;6.50;99.90;;;;;;4968844;28;20256;-84
2021/03/10 10:30:27;;;;;;;9.23;6.60;;;6.60;99.90;;;;;;5004186;28;20241;-82
2021/03/10 10:32:52;;;;;;;13.20;7.90;;;6.60;99.90;;;;;;4987432;28;20258;-81
2021/03/10 10:35:19;;;;;;;11.93;6.77;;;6.70;99.90;;;;;;4995693;28;20215;-83
2021/03/10 10:37:45;;;;;;;10.43;6.27;;;6.70;99.90;;;;;;4980928;28;20687;-83
2021/03/10 10:40:18;;;;;;;9.83;5.73;;;6.70;99.90;;;;;;4989621;28;23057;-83
2021/03/10 10:42:50;;;;;;;10.27;5.57;;;6.70;99.90;;;;;;4981248;28;20560;-82
2021/03/10 10:45:17;;;;;;;8.60;7.63;;;6.80;99.90;;;;;;4990934;28;21203;-83
2021/03/10 10:47:43;;;;;;;14.93;7.20;;;6.80;99.90;;;;;;4989453;28;21317;-85
2021/03/10 10:50:11;;;;;;;11.30;8.27;;;6.80;99.90;;;;;;4996460;28;20274;-82
2021/03/10 10:52:37;;;;;;;12.17;7.50;;;6.90;99.90;;;;;;5004713;28;20184;-84
2021/03/10 10:55:24;;;;;;;8.43;6.93;;;6.80;99.90;;;;;;5002977;28;20239;-83
2021/03/10 10:57:49;;;;;;;10.70;7.47;;;6.80;99.90;;;;;;5002793;28;20221;-83
2021/03/10 11:00:24;;;;;;;13.50;7.23;;;6.90;99.90;;;;;;5002590;28;20699;-80
2021/03/10 11:02:50;;;;;;;13.90;9.77;;;6.90;99.90;;;;;;5002894;28;20214;-81
2021/03/10 11:05:16;;;;;;;12.53;7.83;;;7.00;99.90;;;;;;5003171;28;20226;-82
2021/03/10 11:07:42;;;;;;;13.90;7.63;;;7.00;99.90;;;;;;4989233;28;20187;-80
2021/03/10 11:10:08;;;;;;;16.77;10.30;;;7.00;99.90;;;;;;5008814;28;20275;-81
2021/03/10 11:12:34;;;;;;;11.97;9.47;;;7.00;99.90;;;;;;5042813;28;20210;-80
2021/03/10 11:15:00;;;;;;;13.90;8.90;;;7.00;99.90;;;;;;5042075;28;20206;-81
2021/03/10 11:17:26;;;;;;;18.47;10.87;;;7.00;99.90;;;;;;5002348;28;20726;-81
2021/03/10 11:19:52;;;;;;;9.23;7.53;;;7.00;99.90;;;;;;4994728;28;20269;-80
2021/03/10 11:22:18;;;;;;;7.17;6.13;;;7.10;99.90;;;;;;4984095;28;20214;-81
2021/03/10 11:24:43;;;;;;;9.60;5.63;;;7.10;99.90;;;;;;5004769;28;20206;-82
2021/03/10 11:27:09;;;;;;;10.37;6.70;;;7.20;99.90;;;;;;4992520;28;20214;-82
2021/03/10 11:29:35;;;;;;;8.23;6.27;;;7.10;99.90;;;;;;5009292;28;20261;-80
2021/03/10 11:32:02;;;;;;;10.60;6.93;;;7.20;99.90;;;;;;5001080;28;20198;-81
2021/03/10 11:34:29;;;;;;;12.80;7.87;;;7.20;99.90;;;;;;5027304;28;20198;-81
2021/03/10 11:36:55;;;;;;;8.47;6.27;;;7.30;99.90;;;;;;5042567;28;20248;-82
2021/03/10 11:39:22;;;;;;;14.40;9.10;;;7.30;99.90;;;;;;5041858;28;20261;-82
2021/03/10 11:41:48;;;;;;;18.77;7.33;;;7.30;99.90;;;;;;5021759;28;20230;-82
2021/03/10 11:44:14;;;;;;;10.27;7.13;;;7.30;99.90;;;;;;5020846;28;20292;-84
2021/03/10 11:46:40;;;;;;;8.47;5.50;;;7.30;99.90;;;;;;5007362;28;20282;-85
2021/03/10 11:49:05;;;;;;;4.90;4.40;;;7.40;99.90;;;;;;5023760;28;20218;-83
2021/03/10 11:51:32;;;;;;;10.53;6.37;;;7.50;99.90;;;;;;4979641;28;20277;-83
2021/03/10 11:53:59;;;;;;;13.00;8.03;;;7.50;99.90;;;;;;4997709;28;20260;-85
2021/03/10 11:56:25;;;;;;;14.77;7.23;;;7.50;99.90;;;;;;5041050;28;20206;-84
2021/03/10 11:58:51;;;;;;;14.37;7.77;;;7.50;99.90;;;;;;5010137;28;20406;-82
2021/03/10 12:01:17;;;;;;;16.00;9.07;;;7.60;99.90;;;;;;5042342;28;20214;-83
2021/03/10 12:03:42;;;;;;;7.83;7.07;;;7.60;99.90;;;;;;4992651;28;20283;-82
2021/03/10 12:06:08;;;;;;;12.00;7.33;;;7.60;99.90;;;;;;5003617;28;20230;-82
2021/03/10 12:08:34;;;;;;;16.17;8.37;;;7.60;99.90;;;;;;4992355;28;20321;-83
2021/03/10 12:11:00;;;;;;;10.83;6.67;;;7.60;99.90;;;;;;5024838;28;20251;-82
2021/03/10 12:13:26;;;;;;;18.47;9.70;;;7.60;99.90;;;;;;4992677;28;20190;-82
2021/03/10 12:15:54;;;;;;;13.57;9.83;;;7.60;99.90;;;;;;5027376;28;20217;-82
2021/03/10 12:18:20;;;;;;;9.10;6.33;;;7.60;99.90;;;;;;5028974;28;20210;-82
2021/03/10 12:20:47;;;;;;;7.53;4.63;;;7.60;99.90;;;;;;5029293;28;20214;-84
2021/03/10 12:23:13;;;;;;;8.53;6.67;;;7.60;99.90;;;;;;5028865;28;20221;-84
2021/03/10 12:25:40;;;;;;;10.83;7.03;;;7.60;99.90;;;;;;5013667;28;20248;-84
2021/03/10 12:28:09;;;;;;;15.23;8.50;;;7.60;99.90;;;;;;5001892;28;20733;-83
2021/03/10 12:30:34;;;;;;;6.17;3.80;;;7.70;99.90;;;;;;5021760;28;21017;-84
2021/03/10 12:33:00;;;;;;;15.10;8.63;;;7.70;99.90;;;;;;4995838;28;20203;-83
2021/03/10 12:35:28;;;;;;;9.57;6.77;;;7.70;99.90;;;;;;4993127;28;20215;-84
2021/03/10 12:37:54;;;;;;;12.83;6.83;;;7.70;99.90;;;;;;4992841;28;20178;-83
2021/03/10 12:40:21;;;;;;;9.73;6.23;;;7.80;99.90;;;;;;5010671;28;20191;-83
2021/03/10 12:42:46;;;;;;;10.00;7.07;;;7.80;99.90;;;;;;5024192;28;20553;-83
2021/03/10 12:45:12;;;;;;;12.73;8.33;;;7.80;99.90;;;;;;5010978;28;20214;-82
2021/03/10 12:47:38;;;;;;;13.90;8.23;;;7.90;99.90;;;;;;5008864;28;20207;-82
2021/03/10 12:50:04;;;;;;;15.00;10.20;;;7.90;99.90;;;;;;4993029;28;20178;-83
2021/03/10 12:52:30;;;;;;;15.17;9.47;;;8.00;99.90;;;;;;4976700;28;20253;-82
2021/03/10 12:54:56;;;;;;;14.93;9.37;;;8.00;99.90;;;;;;5008841;28;20259;-82
2021/03/10 12:57:22;;;;;;;10.30;8.23;;;8.00;99.90;;;;;;5027394;28;20228;-82
2021/03/10 12:59:47;;;;;;;14.57;8.07;;;8.00;99.90;;;;;;4990122;28;20349;-84
2021/03/10 13:02:13;;;;;;;10.07;6.70;;;8.00;99.90;;;;;;4985989;28;20255;-82